Aviation Digital Data Service (ADDS)

Output produced by METARs form (0938 UTC 20 October 2014)
found at http://aviationweather.gov/adds/metars/
 
KJAX 200648Z 2007/2106 06003KT P6SM SCT035 
     TEMPO 2007/2011 BKN035 
     FM201400 07008KT P6SM BKN035 
     FM202300 08004KT P6SM SCT030 BKN250